Terminal Aerodrome Forecast
Issued by NWS Twin Cities, MN

Home | Current Version | Previous Version | Graphics & Text | Print | Product List | Glossary On
Versions: 1 2 3 4 5 6 7 8 9 10 11 12 13 14
000
FTUS43 KMPX 291128
TAFEAU
TAF
KEAU 291128Z 2912/3012 24009KT P6SM SKC
     FM291400 27015G25KT P6SM SKC
     FM291600 27020G30KT P6SM SKC
     FM300100 25008KT P6SM SKC=

USA.gov is the U.S. government's official web portal to all federal, state and local government web resources and services.